Terminal Aerodrome Forecast
Issued by NWS

Home | Current Version | Previous Version | Text Only | Print | Product List | Glossary On
Versions: 1 2 3 4 5 6 7 8 9 10 11 12 13 14 15
000
FTUS43 KMPX 291137
TAFRNH
TAF
KRNH 291137Z 2912/3012 31013G24KT P6SM OVC012
      TEMPO 2912/2913 6SM -SHSN
     FM291600 32018G26KT P6SM OVC018
     FM292300 32015G22KT P6SM SCT020
     FM300300 33009KT P6SM SKC
     FM301000 32003KT P6SM BKN100=

USA.gov is the U.S. government's official web portal to all federal, state and local government web resources and services.